This is the latest recevied weather packets stored in our database for station/object OK1VCF-8. If no packets are shown the sender has not sent any weather packets the latest 10 day(s).
| Time | Temp. | Humidity | Pressure | Rain* | Wind** | Luminosity | Snow |
|---|---|---|---|---|---|---|---|
| 1777243050 | 5.56° C | 64% | 1025.4 hPa | - | - | - | - |
| 1777242612 | 5.56° C | 66% | 1025.2 hPa | - | - | - | - |
| 1777242010 | 5.56° C | 60% | 1025.4 hPa | - | - | - | - |
| 1777241571 | 6.67° C | 57% | 1025.4 hPa | - | - | - | - |
| 1777241132 | 6.67° C | 57% | 1025.3 hPa | - | - | - | - |
| 1777240692 | 6.67° C | 56% | 1025.2 hPa | - | - | - | - |
| 1777240255 | 7.22° C | 57% | 1025.2 hPa | - | - | - | - |
| 1777239818 | 7.22° C | 56% | 1025.3 hPa | - | - | - | - |
| 1777239381 | 7.78° C | 54% | 1025.2 hPa | - | - | - | - |
| 1777238944 | 7.78° C | 54% | 1025.4 hPa | - | - | - | - |
| 1777238507 | 7.78° C | 54% | 1025.4 hPa | - | - | - | - |
| 1777238069 | 7.78° C | 55% | 1025.4 hPa | - | - | - | - |
| 1777237632 | 6.67° C | 56% | 1025.4 hPa | - | - | - | - |
| 1777236332 | 8.33° C | 50% | 1025.4 hPa | - | - | - | - |
| 1777235894 | 8.89° C | 48% | 1025.4 hPa | - | - | - | - |
| 1777235292 | 8.89° C | 49% | 1025.4 hPa | - | - | - | - |
| 1777233992 | 8.89° C | 46% | 1025.2 hPa | - | - | - | - |
| 1777233550 | 9.44° C | 46% | 1025.2 hPa | - | - | - | - |
| 1777233112 | 10° C | 45% | 1025.2 hPa | - | - | - | - |
| 1777232674 | 10° C | 44% | 1025.2 hPa | - | - | - | - |
| 1777232236 | 10° C | 44% | 1025.2 hPa | - | - | - | - |
| 1777231798 | 10° C | 44% | 1025.2 hPa | - | - | - | - |
| 1777231358 | 10° C | 42% | 1025 hPa | - | - | - | - |
| 1777230920 | 10° C | 42% | 1024.8 hPa | - | - | - | - |
| 1777230483 | 10.56° C | 42% | 1025 hPa | - | - | - | - |
* Rain since midnight (hover to see other rain measurements)
** Current wind speed in m/s (hover to see current wind gust speed)